Northfield, New Hampshire
Current Conditions -  °F | °C
As of 5:15 PM on Thursday 18 Dec 2014 (Local Time) from KLCI Reporting Station
Overcast Overcast  
Wind Chill: 30°   Ceiling: 2500
Heat Index: 36°   Visibility: 10mi
Dew Point: 25°   Wind: 7mph
Humidity: 65%   Direction: 270°W
Pressure: 29.78"   Gusts: 18mph
Location:  43.4812°N, 71.5745°W
Report Text: KLCI 182215Z AUTO 27006G16KT 10SM OVC025 02/M04 A2978 RMK AO1
Loading
Personal Weather Stations






























Interactive Weather Map New forecast layout! Learn more

10-Day Weather Forecast

Advertisements
Track Severe Weather on mobile